Time;durP1;ratioP1;P1;durP2;ratioP2;P2;SDS_P1;SDS_P2;PMS_P1;PMS_P2;Temp;Humidity;BMP_temperature;BMP_pressure;BME280_temperature;BME280_humidity;BME280_pressure;Samples;Min_cycle;Max_cycle;Signal;HPM_P1;HPM_P2
2022/11/30 00:00:28;;;;;;;4.65;2.80;;;;;;;19.17;43.69;102190.25;16130428;19;129401;-40
2022/11/30 00:05:50;;;;;;;3.10;2.40;;;;;;;19.15;43.22;102192.38;16128389;19;130419;-42
2022/11/30 00:11:19;;;;;;;4.93;2.95;;;;;;;19.13;43.62;102200.06;16128895;19;129076;-39
2022/11/30 00:16:41;;;;;;;3.42;2.42;;;;;;;19.10;43.61;102200.50;16127764;19;130687;-39
2022/11/30 00:22:03;;;;;;;4.68;2.95;;;;;;;19.05;43.28;102188.16;16123125;19;130713;-43
2022/11/30 00:27:29;;;;;;;4.68;3.03;;;;;;;19.04;43.71;102193.91;16124765;19;129975;-42
2022/11/30 00:32:55;;;;;;;3.35;2.42;;;;;;;19.03;43.58;102194.97;16127573;19;129690;-42
2022/11/30 00:38:17;;;;;;;3.22;2.55;;;;;;;19.00;43.58;102189.88;16124547;19;129482;-41
2022/11/30 00:43:39;;;;;;;4.60;2.63;;;;;;;18.97;43.84;102191.16;16125232;19;130277;-39
2022/11/30 00:49:00;;;;;;;4.00;2.50;;;;;;;18.94;43.70;102197.16;16125718;19;130381;-39
2022/11/30 00:54:22;;;;;;;2.67;2.40;;;;;;;18.92;43.71;102193.75;16124238;19;129476;-40
2022/11/30 00:59:44;;;;;;;2.85;2.33;;;;;;;18.90;43.90;102182.00;16123961;19;129641;-39
2022/11/30 01:05:05;;;;;;;3.80;2.47;;;;;;;18.88;43.90;102181.38;16124904;19;129040;-39
2022/11/30 01:10:27;;;;;;;3.55;2.75;;;;;;;18.87;43.87;102201.84;16122500;19;129402;-40
2022/11/30 01:15:49;;;;;;;2.95;2.40;;;;;;;18.84;43.60;102182.84;16122707;19;129790;-39
2022/11/30 01:21:13;;;;;;;4.45;2.70;;;;;;;18.84;43.78;102191.19;16123767;19;129613;-39
2022/11/30 01:26:35;;;;;;;4.90;2.90;;;;;;;18.81;43.67;102191.63;16122295;19;131459;-39
2022/11/30 01:31:57;;;;;;;3.08;2.50;;;;;;;18.79;43.78;102204.84;16122324;19;129139;-39
2022/11/30 01:37:19;;;;;;;3.83;2.90;;;;;;;18.77;43.53;102200.38;16121000;19;129681;-40
2022/11/30 01:42:45;;;;;;;4.05;2.50;;;;;;;18.76;43.55;102212.53;16123670;19;131091;-39
2022/11/30 01:48:07;;;;;;;2.90;2.60;;;;;;;18.73;43.66;102201.88;16122743;19;129643;-40
2022/11/30 01:53:29;;;;;;;2.90;2.60;;;;;;;18.73;43.50;102201.03;16118513;19;129841;-39
2022/11/30 01:58:51;;;;;;;3.15;2.40;;;;;;;18.70;43.84;102201.44;16122093;19;130274;-39
2022/11/30 02:04:29;;;;;;;4.63;2.72;;;;;;;18.71;43.48;102200.38;16119946;19;129518;-41
2022/11/30 02:09:51;;;;;;;3.15;2.40;;;;;;;18.67;43.47;102201.88;16120669;19;129958;-40
2022/11/30 02:15:20;;;;;;;3.67;2.42;;;;;;;18.66;43.92;102206.59;16119942;19;129773;-40
2022/11/30 02:21:09;;;;;;;4.50;2.80;;;;;;;18.65;43.59;102221.50;16120309;19;129829;-39
2022/11/30 02:27:01;;;;;;;3.35;2.42;;;;;;;18.63;43.55;102220.88;16119166;19;130197;-39
2022/11/30 02:32:39;;;;;;;3.63;2.40;;;;;;;18.62;43.67;102230.25;16113608;19;130730;-42
2022/11/30 02:38:03;;;;;;;3.58;2.50;;;;;;;18.58;43.69;102226.22;16115433;19;130332;-39
2022/11/30 02:43:29;;;;;;;3.22;2.35;;;;;;;18.55;43.52;102210.84;16116930;19;129991;-39
2022/11/30 02:49:15;;;;;;;3.63;2.67;;;;;;;18.57;43.41;102227.28;16116508;19;129405;-40
2022/11/30 02:54:38;;;;;;;3.03;2.65;;;;;;;18.52;43.76;102227.06;16113166;19;129085;-39
2022/11/30 03:00:03;;;;;;;3.22;2.50;;;;;;;18.53;43.67;102217.69;16114670;19;129845;-40
2022/11/30 03:05:24;;;;;;;3.07;2.30;;;;;;;18.52;43.70;102221.50;16113462;19;130075;-40
2022/11/30 03:10:46;;;;;;;3.42;2.28;;;;;;;18.51;43.50;102225.34;16113493;19;130687;-40
2022/11/30 03:16:11;;;;;;;3.30;2.70;;;;;;;18.51;43.40;102222.56;16111002;19;129364;-39
2022/11/30 03:21:32;;;;;;;2.65;2.20;;;;;;;18.49;43.56;102224.69;16115057;19;130108;-39
2022/11/30 03:26:54;;;;;;;2.72;2.25;;;;;;;18.48;43.86;102220.22;16112890;19;131269;-40
2022/11/30 03:32:17;;;;;;;2.50;2.20;;;;;;;18.46;43.50;102224.06;16111093;19;130403;-39
2022/11/30 03:37:39;;;;;;;3.22;2.70;;;;;;;18.46;43.87;102223.22;16115251;19;129451;-39
2022/11/30 03:43:00;;;;;;;2.42;2.22;;;;;;;18.45;43.78;102225.16;16112389;19;129937;-40
2022/11/30 03:48:23;;;;;;;3.35;2.72;;;;;;;18.43;43.81;102218.97;16114195;19;129369;-39
2022/11/30 03:53:44;;;;;;;4.93;2.47;;;;;;;18.43;43.44;102230.06;16112547;19;130787;-40
2022/11/30 03:59:06;;;;;;;4.55;2.88;;;;;;;18.42;43.71;102222.81;16123862;19;130034;-40
2022/11/30 04:04:28;;;;;;;3.28;2.47;;;;;;;18.43;43.76;102231.97;16123685;19;130534;-40
2022/11/30 04:09:49;;;;;;;4.40;2.88;;;;;;;18.41;43.81;102248.81;16128832;19;129801;-39
2022/11/30 04:15:11;;;;;;;2.85;2.35;;;;;;;18.41;43.50;102234.09;16124665;19;130435;-39
2022/11/30 04:20:34;;;;;;;3.10;2.55;;;;;;;18.39;43.39;102238.97;16127857;19;130143;-39
2022/11/30 04:26:03;;;;;;;3.35;2.63;;;;;;;18.38;43.78;102237.28;16126079;19;130589;-42
2022/11/30 04:31:24;;;;;;;4.13;2.97;;;;;;;18.36;43.53;102243.00;16125837;19;129480;-39
2022/11/30 04:36:46;;;;;;;3.05;2.45;;;;;;;18.35;43.66;102244.06;16128494;19;129873;-39
2022/11/30 04:42:08;;;;;;;3.85;2.78;;;;;;;18.34;43.34;102253.44;16126028;19;129391;-39
2022/11/30 04:47:29;;;;;;;4.10;2.80;;;;;;;18.33;43.67;102253.66;16127573;19;129978;-40
2022/11/30 04:52:51;;;;;;;3.38;2.55;;;;;;;18.32;43.31;102250.06;16125906;19;130818;-39
2022/11/30 04:58:13;;;;;;;3.15;2.50;;;;;;;18.32;43.59;102247.28;16126913;19;130508;-40
2022/11/30 05:03:35;;;;;;;3.25;2.40;;;;;;;18.30;43.59;102246.63;16126239;19;129589;-40
2022/11/30 05:08:57;;;;;;;3.65;2.65;;;;;;;18.29;43.33;102244.94;16124153;19;129986;-39
2022/11/30 05:14:18;;;;;;;2.97;2.42;;;;;;;18.28;43.48;102252.38;16121957;19;129909;-39
2022/11/30 05:19:40;;;;;;;4.80;2.92;;;;;;;18.28;43.53;102254.31;16123471;19;129640;-39
2022/11/30 05:25:02;;;;;;;4.10;3.05;;;;;;;18.25;43.64;102255.59;16122852;19;129879;-40
2022/11/30 05:30:24;;;;;;;3.50;2.72;;;;;;;18.24;43.53;102253.00;16120399;19;129896;-39
2022/11/30 05:35:45;;;;;;;3.17;2.50;;;;;;;18.24;43.63;102250.25;16122189;19;129598;-42
2022/11/30 05:41:07;;;;;;;3.63;3.03;;;;;;;18.23;43.25;102251.31;16124924;19;129398;-39
2022/11/30 05:46:29;;;;;;;4.28;3.05;;;;;;;18.22;43.56;102261.53;16125615;19;129254;-39
2022/11/30 05:51:54;;;;;;;4.30;3.17;;;;;;;18.22;43.50;102266.22;16122271;19;129572;-39
2022/11/30 05:57:15;;;;;;;4.20;3.43;;;;;;;18.21;43.65;102264.53;16120884;19;129848;-39
2022/11/30 06:02:37;;;;;;;3.95;2.67;;;;;;;18.20;43.67;102262.81;16120141;19;129285;-39
2022/11/30 06:07:59;;;;;;;3.90;2.58;;;;;;;18.28;43.62;102270.94;16120720;19;129560;-39
2022/11/30 06:13:21;;;;;;;3.08;2.30;;;;;;;18.67;43.05;102280.34;16118239;19;129476;-40
2022/11/30 06:18:49;;;;;;;2.97;2.22;;;;;;;19.25;42.53;102275.19;16117623;19;129441;-40
2022/11/30 06:24:11;;;;;;;5.85;2.13;;;;;;;19.78;41.97;102280.50;16120309;19;129972;-40
2022/11/30 06:29:32;;;;;;;4.85;2.15;;;;;;;20.13;41.39;102269.03;16123459;19;130962;-39
2022/11/30 06:34:54;;;;;;;5.25;2.25;;;;;;;20.31;40.98;102272.13;16119718;19;130379;-39
2022/11/30 06:40:16;;;;;;;2.78;2.20;;;;;;;20.33;40.79;102276.38;16118000;19;130428;-40
2022/11/30 06:45:37;;;;;;;2.75;2.30;;;;;;;20.27;41.27;102278.13;16117500;19;129705;-40
2022/11/30 06:50:59;;;;;;;3.88;2.30;;;;;;;20.18;40.84;102285.03;16122845;19;130267;-40
2022/11/30 06:56:21;;;;;;;4.45;2.50;;;;;;;20.05;41.11;102287.91;16108826;19;129810;-41
2022/11/30 07:01:43;;;;;;;4.57;2.95;;;;;;;19.92;41.26;102297.97;16109949;19;129415;-40
2022/11/30 07:07:06;;;;;;;5.53;2.92;;;;;;;19.80;41.50;102300.59;16109828;19;130435;-40
2022/11/30 07:12:28;;;;;;;3.90;3.15;;;;;;;19.68;41.50;102297.66;16117727;19;129679;-39
2022/11/30 07:17:49;;;;;;;4.70;3.20;;;;;;;19.56;41.72;102298.56;16118279;19;130122;-40
2022/11/30 07:28:53;;;;;;;8.25;3.45;;;;;;;19.36;41.86;102322.53;16117128;19;129525;-39
2022/11/30 07:34:15;;;;;;;9.05;3.80;;;;;;;19.29;42.26;102326.38;16127821;19;129275;-41
2022/11/30 07:39:37;;;;;;;7.32;3.63;;;;;;;19.22;41.93;102332.81;16129893;19;129627;-39
2022/11/30 07:44:59;;;;;;;4.78;3.80;;;;;;;19.16;42.02;102328.09;16133271;19;129707;-39
2022/11/30 07:50:21;;;;;;;18.38;3.58;;;;;;;19.12;42.22;102342.59;16130135;19;129739;-39
2022/11/30 07:55:43;;;;;;;6.38;3.42;;;;;;;19.06;42.55;102347.97;16128112;19;129650;-41
2022/11/30 08:01:26;;;;;;;6.43;3.22;;;;;;;19.00;42.21;102351.56;16123600;19;130564;-40
2022/11/30 08:06:48;;;;;;;5.03;3.45;;;;;;;18.97;42.38;102346.44;16122931;19;131141;-39
2022/11/30 08:12:10;;;;;;;5.38;3.15;;;;;;;19.07;42.56;102346.03;16123386;19;130328;-39
2022/11/30 08:17:32;;;;;;;3.83;3.13;;;;;;;19.23;42.33;102347.53;16128301;19;129252;-41
2022/11/30 08:22:53;;;;;;;4.57;2.92;;;;;;;19.38;42.37;102359.25;16130788;19;129314;-39
2022/11/30 08:28:15;;;;;;;4.60;3.20;;;;;;;19.51;42.01;102365.84;16130709;19;135746;-39
2022/11/30 08:33:37;;;;;;;8.43;3.50;;;;;;;19.59;41.57;102371.16;16129905;19;129810;-39
2022/11/30 08:39:04;;;;;;;4.57;3.60;;;;;;;19.67;41.65;102370.06;16126098;19;129570;-39
2022/11/30 08:44:26;;;;;;;5.82;3.15;;;;;;;19.74;41.59;102372.81;16124152;19;129938;-39
2022/11/30 08:49:48;;;;;;;11.82;3.88;;;;;;;19.75;41.49;102375.38;16114943;19;129848;-39
2022/11/30 08:55:10;;;;;;;5.15;3.33;;;;;;;19.75;41.77;102388.41;16118068;19;133700;-40
2022/11/30 09:00:32;;;;;;;6.50;3.80;;;;;;;19.68;41.28;102385.66;16118598;19;129728;-39
2022/11/30 09:05:53;;;;;;;7.18;3.80;;;;;;;19.62;41.83;102383.75;16126395;19;129465;-39
2022/11/30 09:11:19;;;;;;;9.73;4.05;;;;;;;19.53;41.63;102388.69;16124572;19;134421;-39
2022/11/30 09:16:41;;;;;;;8.00;3.80;;;;;;;19.44;41.56;102395.53;16123199;19;129983;-41
2022/11/30 09:22:03;;;;;;;11.13;3.95;;;;;;;19.36;41.94;102393.84;16124656;19;128898;-40
2022/11/30 09:27:29;;;;;;;5.18;4.05;;;;;;;19.28;41.92;102396.81;16123125;19;129154;-39
2022/11/30 09:32:50;;;;;;;9.35;5.47;;;;;;;19.20;41.69;102395.94;16125154;19;130697;-38
2022/11/30 09:38:12;;;;;;;10.98;5.55;;;;;;;19.12;42.07;102395.31;16123044;19;129742;-38
2022/11/30 09:43:43;;;;;;;14.25;7.20;;;;;;;19.06;42.17;102408.97;16126039;19;129098;-38
2022/11/30 09:49:15;;;;;;;12.32;6.32;;;;;;;19.01;41.70;102408.75;16123190;19;129410;-38
2022/11/30 09:54:40;;;;;;;9.63;6.55;;;;;;;18.98;41.92;102409.16;16126505;19;130309;-38
2022/11/30 10:00:09;;;;;;;12.03;6.17;;;;;;;18.96;42.05;102405.75;16121729;19;129543;-42
2022/11/30 10:06:00;;;;;;;9.68;6.30;;;;;;;18.99;41.79;102404.50;16125444;19;129558;-39
2022/11/30 10:11:50;;;;;;;9.20;6.57;;;;;;;19.18;42.48;102409.19;16121698;19;129552;-39
2022/11/30 10:17:33;;;;;;;8.32;6.32;;;;;;;19.61;42.31;102410.66;16125657;19;129844;-41
2022/11/30 10:23:10;;;;;;;11.25;6.18;;;;;;;20.07;42.49;102411.63;16122060;19;130764;-40
2022/11/30 10:28:53;;;;;;;6.90;5.38;;;;;;;20.52;42.01;102402.41;16121680;19;130359;-40
2022/11/30 10:34:27;;;;;;;13.38;5.10;;;;;;;20.84;42.05;102394.06;16120189;19;129908;-43
2022/11/30 10:40:01;;;;;;;10.32;5.28;;;;;;;21.02;41.60;102392.44;16119301;19;129987;-42
2022/11/30 10:45:25;;;;;;;6.75;4.72;;;;;;;21.08;41.45;102396.25;16117650;19;130425;-40
2022/11/30 10:50:47;;;;;;;7.43;4.90;;;;;;;21.02;41.64;102395.22;16121092;19;129638;-44
2022/11/30 10:56:11;;;;;;;9.35;5.57;;;;;;;20.93;41.71;102397.44;16119840;19;129935;-41
2022/11/30 11:01:36;;;;;;;10.48;5.97;;;;;;;20.83;41.95;102384.03;16118766;19;129699;-44
2022/11/30 11:07:05;;;;;;;8.07;6.00;;;;;;;20.71;41.90;102383.03;16129060;19;129522;-41
2022/11/30 11:12:29;;;;;;;7.45;5.80;;;;;;;20.57;42.41;102380.31;16134474;19;129128;-46
2022/11/30 11:17:52;;;;;;;7.97;5.90;;;;;;;20.46;42.61;102381.03;16136313;19;129224;-41
2022/11/30 11:23:39;;;;;;;10.23;6.10;;;;;;;20.36;43.02;102380.69;16135349;19;130179;-40
2022/11/30 11:29:01;;;;;;;7.63;6.05;;;;;;;20.23;43.10;102381.63;16133157;19;130410;-42
2022/11/30 11:34:27;;;;;;;9.35;5.57;;;;;;;20.14;43.13;102375.47;16130330;19;129847;-41
2022/11/30 11:39:57;;;;;;;8.38;6.18;;;;;;;20.06;43.54;102370.16;16134358;19;129228;-40
2022/11/30 11:45:19;;;;;;;8.68;6.43;;;;;;;19.96;43.41;102373.38;16135519;19;129573;-40
2022/11/30 11:50:55;;;;;;;8.82;5.97;;;;;;;19.88;44.07;102379.19;16134456;19;130099;-41
2022/11/30 11:56:35;;;;;;;7.60;5.85;;;;;;;19.79;43.95;102378.56;16135099;19;130266;-42
2022/11/30 12:02:15;;;;;;;9.00;5.70;;;;;;;19.71;44.16;102367.69;16133637;19;129805;-39
2022/11/30 12:08:03;;;;;;;9.20;6.47;;;;;;;19.66;44.48;102372.00;16133399;19;129590;-40
2022/11/30 12:13:28;;;;;;;9.18;5.68;;;;;;;19.58;45.09;102377.75;16131368;19;129214;-42
2022/11/30 12:18:53;;;;;;;7.68;5.47;;;;;;;19.55;46.06;102374.56;16129163;19;129877;-40
2022/11/30 12:24:29;;;;;;;7.20;4.70;;;;;;;19.56;46.83;102366.06;16133216;19;129728;-40
2022/11/30 12:30:14;;;;;;;10.10;4.97;;;;;;;19.69;47.46;102370.69;16133231;19;129428;-39
2022/11/30 12:35:45;;;;;;;8.88;5.05;;;;;;;19.86;47.25;102365.50;16132897;19;129149;-39
2022/11/30 12:41:33;;;;;;;7.68;4.68;;;;;;;20.03;47.39;102360.34;16131405;19;129251;-39
2022/11/30 12:47:15;;;;;;;5.93;4.20;;;;;;;20.18;47.31;102362.84;16128533;19;129104;-39
2022/11/30 12:53:07;;;;;;;5.40;4.57;;;;;;;20.24;47.89;102363.88;16131693;19;129361;-39
2022/11/30 12:58:40;;;;;;;7.45;4.38;;;;;;;20.22;47.66;102366.88;16129095;19;129323;-39
2022/11/30 13:04:24;;;;;;;4.53;3.88;;;;;;;20.19;47.94;102372.03;16127447;19;129330;-39
2022/11/30 13:09:52;;;;;;;6.75;4.28;;;;;;;20.10;48.30;102376.97;16127951;19;129477;-39
2022/11/30 13:15:19;;;;;;;6.03;3.60;;;;;;;20.01;48.36;102383.84;16127028;19;130356;-39
2022/11/30 13:21:00;;;;;;;6.00;4.10;;;;;;;19.90;48.36;102372.34;16127717;19;129500;-39
2022/11/30 13:26:40;;;;;;;5.45;3.75;;;;;;;19.80;48.21;102366.41;16126713;19;129305;-39
2022/11/30 13:32:10;;;;;;;4.60;3.88;;;;;;;19.74;48.67;102370.91;16127173;19;131522;-39
2022/11/30 13:38:14;;;;;;;5.57;3.85;;;;;;;19.65;48.80;102370.28;16128270;19;130152;-39
2022/11/30 13:43:55;;;;;;;5.75;4.00;;;;;;;19.56;48.29;102376.28;16127156;19;130970;-39
2022/11/30 13:49:26;;;;;;;5.40;3.83;;;;;;;19.51;48.66;102379.72;16122270;19;129663;-39
2022/11/30 13:54:49;;;;;;;7.18;4.20;;;;;;;19.46;49.09;102383.16;16122862;19;130039;-39
2022/11/30 14:00:30;;;;;;;7.35;4.82;;;;;;;19.42;48.89;102381.84;16115810;19;129665;-39
2022/11/30 14:06:24;;;;;;;7.53;5.85;;;;;;;19.33;47.73;102392.31;16124762;19;130768;-41
2022/11/30 14:11:49;;;;;;;10.55;6.20;;;;;;;19.28;47.50;102391.28;16123447;19;129599;-40
2022/11/30 14:17:18;;;;;;;8.82;5.80;;;;;;;19.24;47.63;102396.41;16121906;19;131093;-42
2022/11/30 14:22:40;;;;;;;7.53;5.25;;;;;;;19.21;47.87;102402.38;16120953;19;129840;-40
2022/11/30 14:28:04;;;;;;;7.15;5.65;;;;;;;19.24;47.64;102403.88;16120899;19;130053;-40
2022/11/30 14:33:43;;;;;;;7.10;5.45;;;;;;;19.29;48.45;102413.28;16119616;19;130202;-39
2022/11/30 14:39:23;;;;;;;5.80;5.15;;;;;;;19.37;48.61;102410.25;16118140;19;129604;-39
2022/11/30 14:44:46;;;;;;;7.47;5.28;;;;;;;19.42;48.30;102411.56;16121297;19;129697;-39
2022/11/30 14:50:21;;;;;;;6.47;4.72;;;;;;;19.47;48.71;102411.75;16117503;19;131214;-39
2022/11/30 14:55:57;;;;;;;6.93;4.97;;;;;;;19.47;48.33;102408.97;16116679;19;129531;-39
2022/11/30 15:01:22;;;;;;;8.85;4.80;;;;;;;19.41;48.63;102412.63;16116922;19;129601;-39
2022/11/30 15:06:44;;;;;;;7.03;4.57;;;;;;;19.36;48.62;102416.03;16118305;19;129815;-39
2022/11/30 15:12:06;;;;;;;7.15;4.97;;;;;;;19.32;48.41;102411.97;16115535;19;129265;-38
2022/11/30 15:17:28;;;;;;;7.10;4.22;;;;;;;19.27;48.25;102412.63;16118367;19;129611;-38
2022/11/30 15:22:50;;;;;;;5.55;4.57;;;;;;;19.21;48.25;102407.91;16116511;19;129597;-39
2022/11/30 15:28:36;;;;;;;7.07;4.43;;;;;;;19.17;48.40;102407.47;16113618;19;129408;-39
2022/11/30 15:33:58;;;;;;;;;;;;;;;19.09;48.69;102407.69;16115961;19;130440;-39
2022/11/30 15:39:23;;;;;;;5.35;4.25;;;;;;;19.07;48.31;102407.91;16116155;19;129795;-40
2022/11/30 15:44:46;;;;;;;5.22;3.83;;;;;;;19.07;49.11;102413.47;16114912;19;129501;-39
2022/11/30 15:50:38;;;;;;;4.43;3.53;;;;;;;19.22;49.52;102415.19;16115013;19;129604;-39
2022/11/30 15:56:06;;;;;;;6.00;3.90;;;;;;;19.44;48.76;102417.75;16128982;19;129997;-39
2022/11/30 16:01:30;;;;;;;5.55;3.58;;;;;;;19.72;48.66;102423.03;16130639;19;129933;-39
2022/11/30 16:06:52;;;;;;;4.13;3.33;;;;;;;19.96;47.96;102418.66;16131353;19;129766;-39
2022/11/30 16:12:30;;;;;;;3.45;2.85;;;;;;;20.19;47.96;102425.66;16130379;19;129779;-39
2022/11/30 16:17:57;;;;;;;4.70;3.30;;;;;;;20.32;47.59;102426.66;16129858;19;129651;-41
2022/11/30 16:23:19;;;;;;;5.85;3.65;;;;;;;20.29;47.29;102420.50;16126087;19;131157;-40
2022/11/30 16:28:41;;;;;;;7.75;3.90;;;;;;;20.26;46.62;102436.75;16127974;19;129573;-39
2022/11/30 16:34:03;;;;;;;5.93;4.57;;;;;;;20.19;46.71;102444.25;16127388;19;129660;-39
2022/11/30 16:39:25;;;;;;;7.78;5.35;;;;;;;20.10;45.89;102443.66;16126826;19;129525;-39
2022/11/30 16:44:46;;;;;;;6.47;4.55;;;;;;;20.07;46.03;102444.09;16129012;19;129609;-39
2022/11/30 16:50:10;;;;;;;6.40;4.57;;;;;;;20.20;46.29;102454.31;16129141;19;129464;-39
2022/11/30 16:55:36;;;;;;;4.95;3.85;;;;;;;20.33;46.72;102459.81;16131709;19;129680;-39
2022/11/30 17:00:59;;;;;;;4.55;3.20;;;;;;;20.44;46.90;102461.91;16127640;19;130860;-40
2022/11/30 17:06:22;;;;;;;6.65;3.28;;;;;;;20.53;46.49;102470.84;16125763;19;129577;-41
2022/11/30 17:11:46;;;;;;;4.30;3.17;;;;;;;20.57;46.57;102472.09;16123989;19;130206;-40
2022/11/30 17:17:09;;;;;;;4.47;2.97;;;;;;;20.56;46.97;102475.94;16126472;19;129651;-39
2022/11/30 17:22:32;;;;;;;4.63;3.42;;;;;;;20.50;46.83;102474.06;16122398;19;129656;-39
2022/11/30 17:27:54;;;;;;;5.63;2.70;;;;;;;20.42;47.33;102479.88;16125682;19;129558;-41
2022/11/30 17:33:16;;;;;;;3.63;3.08;;;;;;;20.33;47.21;102482.06;16122529;19;129983;-39
2022/11/30 17:38:38;;;;;;;3.90;3.10;;;;;;;20.22;47.37;102472.47;16123836;19;129477;-41
2022/11/30 17:44:01;;;;;;;3.53;3.22;;;;;;;20.12;47.80;102474.84;16124577;19;129532;-39
2022/11/30 17:49:23;;;;;;;3.85;3.05;;;;;;;20.02;47.69;102483.63;16121643;19;129288;-40
2022/11/30 17:54:44;;;;;;;4.15;2.70;;;;;;;19.92;47.68;102489.63;16120827;19;129502;-39
2022/11/30 18:00:07;;;;;;;3.17;2.70;;;;;;;19.84;47.84;102487.06;16119191;19;129407;-39
2022/11/30 18:05:31;;;;;;;5.07;3.15;;;;;;;19.76;47.59;102495.63;16122333;19;129633;-41
2022/11/30 18:10:54;;;;;;;4.38;3.30;;;;;;;19.66;47.58;102485.81;16120045;19;130537;-40
2022/11/30 18:16:24;;;;;;;4.35;3.25;;;;;;;19.62;47.70;102492.03;16116353;19;130100;-40
2022/11/30 18:21:46;;;;;;;4.55;3.47;;;;;;;19.54;48.07;102490.31;16119802;19;130633;-39
2022/11/30 18:27:08;;;;;;;3.55;2.85;;;;;;;19.49;48.12;102503.97;16117420;19;130737;-42
2022/11/30 18:32:30;;;;;;;5.30;3.10;;;;;;;19.45;48.06;102508.25;16121569;19;134484;-40
2022/11/30 18:37:52;;;;;;;3.30;2.80;;;;;;;19.40;48.13;102510.81;16121202;19;130447;-40
2022/11/30 18:43:14;;;;;;;3.15;2.80;;;;;;;19.35;48.31;102519.78;16121904;19;129507;-42
2022/11/30 18:48:36;;;;;;;4.50;3.10;;;;;;;19.31;47.90;102519.34;16122728;19;130564;-41
2022/11/30 18:54:04;;;;;;;3.97;2.67;;;;;;;19.28;48.39;102524.47;16118356;19;130859;-42
2022/11/30 18:59:26;;;;;;;3.33;2.80;;;;;;;19.28;48.32;102525.31;16118443;19;129416;-45
2022/11/30 19:04:49;;;;;;;3.38;2.20;;;;;;;19.40;48.54;102527.47;16114128;19;130721;-40
2022/11/30 19:10:11;;;;;;;3.22;2.15;;;;;;;19.59;48.55;102532.16;16117571;19;132040;-43
2022/11/30 19:15:40;;;;;;;2.40;2.15;;;;;;;19.80;47.96;102544.13;16119610;19;129728;-48
2022/11/30 19:21:10;;;;;;;2.58;1.95;;;;;;;19.98;47.89;102530.41;16114786;19;129335;-45
2022/11/30 19:26:32;;;;;;;5.70;2.10;;;;;;;20.11;48.07;102535.13;16118537;19;129728;-47
2022/11/30 19:31:54;;;;;;;5.40;2.20;;;;;;;20.19;47.83;102539.59;16129499;19;129476;-43
2022/11/30 19:37:15;;;;;;;3.67;2.30;;;;;;;20.23;47.77;102549.19;16130300;19;129937;-51
2022/11/30 19:42:37;;;;;;;7.65;3.20;;;;;;;20.22;48.05;102553.03;16128878;19;129764;-45
2022/11/30 19:47:59;;;;;;;9.82;3.47;;;;;;;20.19;48.00;102542.34;16129677;19;129935;-46
2022/11/30 19:53:21;;;;;;;10.23;3.13;;;;;;;20.15;48.11;102543.88;16126832;19;129808;-38
2022/11/30 19:58:44;;;;;;;5.28;3.22;;;;;;;20.11;48.11;102551.81;16127788;19;129908;-38
2022/11/30 20:04:06;;;;;;;10.57;3.03;;;;;;;20.09;48.35;102553.06;16127272;19;129888;-38
2022/11/30 20:09:28;;;;;;;15.85;3.20;;;;;;;20.03;48.14;102551.19;16127665;19;131024;-38
2022/11/30 20:14:51;;;;;;;9.35;3.60;;;;;;;20.00;48.59;102558.00;16124162;19;133405;-39
2022/11/30 20:20:12;;;;;;;24.33;4.53;;;;;;;19.96;48.27;102565.88;16126236;19;129607;-38
2022/11/30 20:25:35;;;;;;;12.52;3.47;;;;;;;19.92;48.50;102567.41;16131375;19;134057;-37
2022/11/30 20:31:01;;;;;;;14.27;3.65;;;;;;;19.89;48.34;102573.38;16127697;19;130088;-38
2022/11/30 20:36:22;;;;;;;;;;;;;;;19.83;47.98;102561.22;16124229;19;129720;-39
2022/11/30 20:41:44;;;;;;;18.60;3.88;;;;;;;19.83;48.11;102560.34;16123906;19;129917;-38
2022/11/30 20:47:06;;;;;;;15.27;3.65;;;;;;;19.81;47.93;102568.06;16125521;19;129453;-39
2022/11/30 20:52:27;;;;;;;12.38;3.53;;;;;;;19.80;48.30;102571.91;16126856;19;129983;-39
2022/11/30 20:57:49;;;;;;;5.78;3.40;;;;;;;19.78;48.47;102574.03;16123727;19;129584;-40
2022/11/30 21:03:11;;;;;;;8.63;3.38;;;;;;;19.78;48.02;102574.03;16121476;19;129961;-40
2022/11/30 21:08:34;;;;;;;6.57;3.60;;;;;;;19.77;48.36;102583.44;16124836;19;129585;-41
2022/11/30 21:13:57;;;;;;;10.90;3.63;;;;;;;19.76;48.24;102581.72;16123869;19;129837;-41
2022/11/30 21:19:19;;;;;;;8.13;3.92;;;;;;;19.75;47.75;102591.13;16125001;19;129797;-40
2022/11/30 21:24:40;;;;;;;7.40;3.60;;;;;;;19.73;47.98;102594.13;16125751;19;129681;-40
2022/11/30 21:30:03;;;;;;;14.13;4.38;;;;;;;19.66;47.74;102588.56;16125675;19;130595;-41
2022/11/30 21:35:25;;;;;;;19.75;5.47;;;;;;;19.60;47.56;102583.84;16121022;19;130421;-38
2022/11/30 21:40:56;;;;;;;23.50;5.07;;;;;;;19.56;47.19;102581.72;16122647;19;129236;-40
2022/11/30 21:46:19;;;;;;;18.05;5.07;;;;;;;19.47;46.53;102589.38;16121096;19;130346;-37
2022/11/30 21:51:41;;;;;;;17.10;5.55;;;;;;;19.40;46.83;102574.66;16123807;19;129508;-39
2022/11/30 21:57:03;;;;;;;10.43;4.57;;;;;;;19.31;46.94;102591.50;16121409;19;129697;-40
2022/11/30 22:02:25;;;;;;;9.55;4.90;;;;;;;19.25;46.90;102585.94;16119110;19;128957;-40
2022/11/30 22:07:46;;;;;;;10.98;4.97;;;;;;;19.18;46.33;102585.91;16120696;19;129978;-39
2022/11/30 22:13:08;;;;;;;7.88;4.90;;;;;;;19.13;46.45;102594.84;16120993;19;129308;-39
2022/11/30 22:18:30;;;;;;;9.73;4.65;;;;;;;19.08;46.60;102598.22;16123665;19;133707;-39
2022/11/30 22:23:56;;;;;;;9.25;4.38;;;;;;;19.03;46.48;102603.56;16120698;19;128999;-39
2022/11/30 22:29:21;;;;;;;6.63;4.15;;;;;;;18.99;46.15;102599.47;16122170;19;129584;-39
2022/11/30 22:34:43;;;;;;;10.23;4.83;;;;;;;18.95;46.30;102594.56;16120977;19;129890;-39
2022/11/30 22:40:05;;;;;;;6.40;4.50;;;;;;;18.91;46.17;102602.44;16121306;19;129052;-39
2022/11/30 22:45:27;;;;;;;7.95;4.80;;;;;;;18.87;46.13;102590.91;16120455;19;129789;-39
2022/11/30 22:50:48;;;;;;;7.90;4.65;;;;;;;18.85;45.96;102593.03;16121760;19;129618;-38
2022/11/30 22:56:22;;;;;;;7.20;4.18;;;;;;;18.81;45.72;102594.50;16117450;19;132970;-38
2022/11/30 23:01:47;;;;;;;5.68;4.63;;;;;;;18.77;45.58;102585.75;16120664;19;129651;-40
2022/11/30 23:07:08;;;;;;;8.30;5.53;;;;;;;18.75;45.65;102593.41;16134166;19;129383;-38
2022/11/30 23:12:30;;;;;;;6.80;5.15;;;;;;;18.72;45.53;102593.81;16135743;19;134856;-38
2022/11/30 23:18:12;;;;;;;6.43;4.53;;;;;;;18.70;45.31;102595.09;16134475;19;131271;-38
2022/11/30 23:23:34;;;;;;;6.93;5.13;;;;;;;18.66;45.37;102600.22;16133522;19;130376;-39
2022/11/30 23:29:00;;;;;;;5.97;4.95;;;;;;;18.64;45.44;102599.56;16135148;19;130077;-39
2022/11/30 23:34:22;;;;;;;5.75;4.40;;;;;;;18.63;45.58;102592.28;16130426;19;130868;-39
2022/11/30 23:39:44;;;;;;;5.95;4.95;;;;;;;18.61;45.25;102594.41;16131525;19;129723;-39
2022/11/30 23:45:06;;;;;;;7.22;4.85;;;;;;;18.58;45.23;102583.75;16133537;19;129460;-39
2022/11/30 23:50:28;;;;;;;7.07;5.47;;;;;;;18.57;45.02;102585.66;16130255;19;130130;-38
2022/11/30 23:55:51;;;;;;;6.40;5.10;;;;;;;18.55;44.99;102586.94;16129451;19;129240;-39
